Time;durP1;ratioP1;P1;durP2;ratioP2;P2;SDS_P1;SDS_P2;PMS_P1;PMS_P2;Temp;Humidity;BMP_temperature;BMP_pressure;BME280_temperature;BME280_humidity;BME280_pressure;Samples;Min_cycle;Max_cycle;Signal;HPM_P1;HPM_P2
2021/10/09 00:02:01;;;;;;;35.53;14.93;;;7.80;99.90;;;;;;5032204;28;20041;-68
2021/10/09 00:04:28;;;;;;;28.23;14.90;;;7.70;99.90;;;;;;5033953;28;20130;-68
2021/10/09 00:06:55;;;;;;;36.42;16.23;;;7.80;99.90;;;;;;5032402;28;20452;-70
2021/10/09 00:09:23;;;;;;;32.33;14.98;;;7.80;99.90;;;;;;5033159;28;20044;-68
2021/10/09 00:11:49;;;;;;;29.75;13.80;;;7.80;99.90;;;;;;5033831;28;20597;-68
2021/10/09 00:14:16;;;;;;;26.58;13.32;;;7.80;99.90;;;;;;5034281;28;20404;-68
2021/10/09 00:16:45;;;;;;;32.33;13.52;;;7.70;99.90;;;;;;5032931;28;20045;-68
2021/10/09 00:19:13;;;;;;;25.88;13.50;;;7.80;99.90;;;;;;5031004;28;20053;-68
2021/10/09 00:21:44;;;;;;;29.27;12.68;;;7.80;99.90;;;;;;5031379;28;20049;-68
2021/10/09 00:24:11;;;;;;;26.70;13.68;;;7.80;99.90;;;;;;5031299;28;20080;-68
2021/10/09 00:26:39;;;;;;;26.90;13.45;;;7.70;99.90;;;;;;5031404;28;20065;-68
2021/10/09 00:29:06;;;;;;;26.63;13.57;;;7.60;99.90;;;;;;5031476;28;20532;-68
2021/10/09 00:31:33;;;;;;;29.33;14.15;;;7.60;99.90;;;;;;5031557;28;20037;-68
2021/10/09 00:34:02;;;;;;;25.40;13.35;;;7.60;99.90;;;;;;5031119;28;20508;-68
2021/10/09 00:36:29;;;;;;;28.23;13.02;;;7.60;99.90;;;;;;5030985;28;20088;-68
2021/10/09 00:38:56;;;;;;;25.10;12.77;;;7.60;99.90;;;;;;5032348;28;20501;-68
2021/10/09 00:41:23;;;;;;;30.02;14.48;;;7.60;99.90;;;;;;5031637;28;20501;-68
2021/10/09 00:43:50;;;;;;;32.08;13.13;;;7.60;99.90;;;;;;5031675;28;21065;-68
2021/10/09 00:46:18;;;;;;;28.92;12.40;;;7.60;99.90;;;;;;5031646;28;20178;-68
2021/10/09 00:48:46;;;;;;;27.52;13.52;;;7.40;99.90;;;;;;5031041;28;20099;-67
2021/10/09 00:51:14;;;;;;;26.67;13.23;;;7.50;99.90;;;;;;5031197;28;20134;-68
2021/10/09 00:53:42;;;;;;;28.27;13.85;;;7.50;99.90;;;;;;5031738;28;20045;-68
2021/10/09 00:56:10;;;;;;;25.45;13.05;;;7.50;99.90;;;;;;5030267;28;20199;-68
2021/10/09 00:58:39;;;;;;;25.13;12.50;;;7.40;99.90;;;;;;5031032;28;20044;-68
2021/10/09 01:01:06;;;;;;;24.35;12.75;;;7.30;99.90;;;;;;5031112;28;20144;-68
2021/10/09 01:03:34;;;;;;;23.75;13.25;;;7.20;99.90;;;;;;5031772;28;20118;-68
2021/10/09 01:06:01;;;;;;;25.60;13.25;;;7.30;99.90;;;;;;5031705;28;20110;-69
2021/10/09 01:08:29;;;;;;;28.15;13.75;;;7.30;99.90;;;;;;5031106;28;20045;-68
2021/10/09 01:10:56;;;;;;;32.10;13.60;;;7.30;99.90;;;;;;5030078;28;20068;-68
2021/10/09 01:13:23;;;;;;;28.13;13.63;;;7.30;99.90;;;;;;5028510;28;20463;-68
2021/10/09 01:15:50;;;;;;;28.42;13.48;;;7.20;99.90;;;;;;5029659;28;20057;-69
2021/10/09 01:18:18;;;;;;;26.30;12.75;;;7.40;99.90;;;;;;5032597;28;20048;-68
2021/10/09 01:20:49;;;;;;;26.20;12.70;;;7.30;99.90;;;;;;5033198;28;20486;-69
2021/10/09 01:23:16;;;;;;;28.85;13.48;;;7.20;99.90;;;;;;5032313;28;20048;-69
2021/10/09 01:25:43;;;;;;;24.75;12.88;;;7.10;99.90;;;;;;5031528;28;20080;-69
2021/10/09 01:28:10;;;;;;;28.33;12.73;;;7.10;99.90;;;;;;5033368;28;21237;-69
2021/10/09 01:30:37;;;;;;;25.85;13.38;;;7.20;99.90;;;;;;5033422;28;20049;-69
2021/10/09 01:33:05;;;;;;;28.40;12.48;;;7.10;99.90;;;;;;5032378;28;20084;-69
2021/10/09 01:35:44;;;;;;;23.92;13.02;;;7.00;99.90;;;;;;5032618;28;20111;-69
2021/10/09 01:38:13;;;;;;;26.60;12.55;;;7.00;99.90;;;;;;5032883;28;20071;-69
2021/10/09 01:40:40;;;;;;;30.42;14.90;;;7.00;99.90;;;;;;5032377;28;20053;-69
2021/10/09 01:43:09;;;;;;;26.20;12.50;;;6.90;99.90;;;;;;5033532;28;20084;-69
2021/10/09 01:45:37;;;;;;;23.23;12.10;;;6.90;99.90;;;;;;5032502;28;20049;-69
2021/10/09 01:48:04;;;;;;;24.13;12.52;;;7.00;99.90;;;;;;5032541;28;20098;-69
2021/10/09 01:50:31;;;;;;;28.65;13.13;;;6.90;99.90;;;;;;5032461;28;20444;-69
2021/10/09 01:52:58;;;;;;;26.40;12.80;;;6.90;99.90;;;;;;5032886;28;20076;-69
2021/10/09 01:55:26;;;;;;;31.80;12.88;;;6.80;99.90;;;;;;5032184;28;20115;-67
2021/10/09 01:57:53;;;;;;;27.35;14.27;;;6.70;99.90;;;;;;5032899;28;20556;-68
2021/10/09 02:00:20;;;;;;;26.67;12.93;;;6.70;99.90;;;;;;5031773;28;20084;-68
2021/10/09 02:02:48;;;;;;;32.22;13.55;;;6.70;99.90;;;;;;5032230;28;20098;-68
2021/10/09 02:05:15;;;;;;;30.35;12.88;;;6.60;99.90;;;;;;5032475;28;20055;-68
2021/10/09 02:07:41;;;;;;;24.40;12.07;;;6.70;99.90;;;;;;5034077;28;20575;-67
2021/10/09 02:10:13;;;;;;;26.42;13.05;;;6.70;99.90;;;;;;5033234;28;20080;-68
2021/10/09 02:12:41;;;;;;;27.67;11.63;;;6.70;99.90;;;;;;5031858;28;20088;-70
2021/10/09 02:15:12;;;;;;;29.95;13.05;;;6.70;99.90;;;;;;5032949;28;20157;-69
2021/10/09 02:26:07;;;;;;;24.75;12.52;;;6.60;99.90;;;;;;5003880;28;20059;-68
2021/10/09 02:28:35;;;;;;;24.60;12.60;;;6.60;99.90;;;;;;5028309;28;20045;-70
2021/10/09 02:31:02;;;;;;;28.35;11.93;;;6.60;99.90;;;;;;5026892;28;20084;-68
2021/10/09 02:33:29;;;;;;;27.70;12.82;;;6.60;99.90;;;;;;5026580;28;20120;-69
2021/10/09 02:35:56;;;;;;;27.08;12.40;;;6.60;99.90;;;;;;5027643;28;20049;-69
2021/10/09 02:38:24;;;;;;;28.10;12.75;;;6.70;99.90;;;;;;5030729;28;20786;-69
2021/10/09 02:40:51;;;;;;;25.40;12.27;;;6.50;99.90;;;;;;5032165;28;21059;-69
2021/10/09 02:43:18;;;;;;;27.65;13.35;;;6.50;99.90;;;;;;5029349;28;20126;-69
2021/10/09 02:45:46;;;;;;;29.20;12.70;;;6.50;99.90;;;;;;5030688;28;20056;-68
2021/10/09 02:48:15;;;;;;;27.10;12.60;;;6.60;99.90;;;;;;5030874;28;20040;-68
2021/10/09 02:50:43;;;;;;;27.85;11.95;;;6.50;99.90;;;;;;5030174;28;20425;-68
2021/10/09 02:53:10;;;;;;;28.17;11.93;;;6.50;99.90;;;;;;5030392;28;20048;-68
2021/10/09 02:55:37;;;;;;;27.75;12.18;;;6.40;99.90;;;;;;5028628;28;20149;-68
2021/10/09 02:58:05;;;;;;;28.52;12.07;;;6.50;99.90;;;;;;5030439;28;20087;-68
2021/10/09 03:00:32;;;;;;;26.60;12.00;;;6.40;99.90;;;;;;5030100;28;20150;-68
2021/10/09 03:03:01;;;;;;;25.90;11.63;;;6.40;99.90;;;;;;5030579;28;20096;-69
2021/10/09 03:05:28;;;;;;;22.88;10.95;;;6.40;99.90;;;;;;5029116;28;20090;-68
2021/10/09 03:07:55;;;;;;;27.45;12.50;;;6.50;99.90;;;;;;5030003;28;20126;-68
2021/10/09 03:10:23;;;;;;;29.88;12.63;;;6.40;99.90;;;;;;5031257;28;20099;-68
2021/10/09 03:12:50;;;;;;;27.40;12.25;;;6.40;99.90;;;;;;5030604;28;20060;-68
2021/10/09 03:15:17;;;;;;;27.60;12.38;;;6.30;99.90;;;;;;5029223;28;20048;-68
2021/10/09 03:17:44;;;;;;;30.42;12.13;;;6.20;99.90;;;;;;5030249;28;20847;-68
2021/10/09 03:20:13;;;;;;;24.98;11.55;;;6.10;99.90;;;;;;5030588;28;20048;-68
2021/10/09 03:22:40;;;;;;;31.52;12.77;;;6.20;99.90;;;;;;5031219;28;20088;-68
2021/10/09 03:25:09;;;;;;;26.50;11.95;;;6.20;99.90;;;;;;5029639;28;20103;-68
2021/10/09 03:27:36;;;;;;;27.08;12.27;;;6.20;99.90;;;;;;5030557;28;20440;-69
2021/10/09 03:30:04;;;;;;;21.92;11.55;;;6.10;99.90;;;;;;5030765;28;20057;-69
2021/10/09 03:32:31;;;;;;;24.60;11.68;;;6.10;99.90;;;;;;5028874;28;20057;-69
2021/10/09 03:34:58;;;;;;;24.77;12.40;;;6.20;99.90;;;;;;5029727;28;20079;-69
2021/10/09 03:37:27;;;;;;;24.55;11.70;;;6.30;99.90;;;;;;5028871;28;20091;-69
2021/10/09 03:39:56;;;;;;;23.73;11.18;;;6.30;99.90;;;;;;5030352;28;20052;-69
2021/10/09 03:42:26;;;;;;;25.13;11.80;;;6.30;99.90;;;;;;5029250;28;20102;-69
2021/10/09 03:44:56;;;;;;;26.33;12.13;;;6.30;99.90;;;;;;5029990;28;20056;-69
2021/10/09 03:47:30;;;;;;;26.70;12.07;;;6.30;99.90;;;;;;5027650;28;20056;-69
2021/10/09 03:49:59;;;;;;;29.58;12.95;;;6.30;99.90;;;;;;5029870;28;20048;-68
2021/10/09 03:52:38;;;;;;;25.45;11.90;;;6.30;99.90;;;;;;5030295;28;20067;-69
2021/10/09 03:55:08;;;;;;;22.95;12.38;;;6.20;99.90;;;;;;5030688;28;20060;-68
2021/10/09 03:57:35;;;;;;;23.90;12.50;;;6.00;99.90;;;;;;5033622;28;20044;-68
2021/10/09 04:00:03;;;;;;;26.48;12.73;;;5.90;99.90;;;;;;5029629;28;20098;-68
2021/10/09 04:02:30;;;;;;;24.75;12.90;;;5.90;99.90;;;;;;5031255;28;20059;-68
2021/10/09 04:04:57;;;;;;;26.35;12.88;;;5.90;99.90;;;;;;5029553;28;20060;-68
2021/10/09 04:07:24;;;;;;;26.10;12.70;;;5.90;99.90;;;;;;5028729;28;20547;-68
2021/10/09 04:09:52;;;;;;;25.17;12.55;;;5.90;99.90;;;;;;5031513;28;20057;-69
2021/10/09 04:12:19;;;;;;;24.75;13.32;;;5.90;99.90;;;;;;5030616;28;20469;-68
2021/10/09 04:14:46;;;;;;;28.73;12.93;;;5.80;99.90;;;;;;5029539;28;20443;-68
2021/10/09 04:17:13;;;;;;;29.33;13.63;;;5.70;99.90;;;;;;5028520;28;20410;-68
2021/10/09 04:19:40;;;;;;;29.80;13.82;;;5.70;99.90;;;;;;5031434;28;20100;-68
2021/10/09 04:22:08;;;;;;;28.38;13.05;;;5.70;99.90;;;;;;5032329;28;20110;-69
2021/10/09 04:24:35;;;;;;;30.35;13.00;;;5.70;99.90;;;;;;5030875;28;20158;-70
2021/10/09 04:27:04;;;;;;;28.95;13.77;;;5.70;99.90;;;;;;5036101;28;20076;-68
2021/10/09 04:29:31;;;;;;;31.50;13.75;;;5.60;99.90;;;;;;5034182;28;20263;-69
2021/10/09 04:31:58;;;;;;;29.75;13.80;;;5.60;99.90;;;;;;5030175;28;20049;-69
2021/10/09 04:34:27;;;;;;;26.25;13.48;;;5.60;99.90;;;;;;5030719;28;20052;-68
2021/10/09 04:36:55;;;;;;;31.02;14.02;;;5.60;99.90;;;;;;5028162;28;20260;-68
2021/10/09 04:39:22;;;;;;;26.13;14.27;;;5.60;99.90;;;;;;5030480;28;20048;-68
2021/10/09 04:41:49;;;;;;;30.55;14.00;;;5.60;99.90;;;;;;5029809;28;20476;-69
2021/10/09 04:44:18;;;;;;;34.80;13.95;;;5.60;99.90;;;;;;5029534;28;20460;-68
2021/10/09 04:46:45;;;;;;;30.00;13.38;;;5.60;99.90;;;;;;5030089;28;20482;-69
2021/10/09 04:49:12;;;;;;;29.30;13.45;;;5.60;99.90;;;;;;5029435;28;20049;-69
2021/10/09 04:51:39;;;;;;;29.90;13.88;;;5.50;99.90;;;;;;5029624;28;20045;-68
2021/10/09 04:54:06;;;;;;;27.17;13.97;;;5.40;99.90;;;;;;5031473;28;20102;-69
2021/10/09 04:56:33;;;;;;;29.92;13.15;;;5.40;99.90;;;;;;5030500;28;20154;-69
2021/10/09 04:59:00;;;;;;;32.45;15.30;;;5.50;99.90;;;;;;5031808;28;20053;-68
2021/10/09 05:01:28;;;;;;;30.50;14.50;;;5.50;99.90;;;;;;5029694;28;20122;-68
2021/10/09 05:03:55;;;;;;;37.78;14.85;;;5.30;99.90;;;;;;5030481;28;20531;-68
2021/10/09 05:06:22;;;;;;;29.90;13.80;;;5.20;99.90;;;;;;5027756;28;20060;-69
2021/10/09 05:08:49;;;;;;;26.83;13.77;;;5.20;99.90;;;;;;5029530;28;20045;-69
2021/10/09 05:11:18;;;;;;;30.93;15.10;;;5.20;99.90;;;;;;5029036;28;20060;-69
2021/10/09 05:13:45;;;;;;;30.33;13.50;;;5.10;99.90;;;;;;5029622;28;20080;-69
2021/10/09 05:16:12;;;;;;;30.67;14.23;;;5.10;99.90;;;;;;5035045;28;20098;-69
2021/10/09 05:18:41;;;;;;;29.83;14.20;;;5.20;99.90;;;;;;5035786;28;20460;-70
2021/10/09 05:21:08;;;;;;;28.77;13.75;;;5.20;99.90;;;;;;5032993;28;20053;-69
2021/10/09 05:23:36;;;;;;;30.90;14.63;;;5.20;99.90;;;;;;5031779;28;20049;-69
2021/10/09 05:26:04;;;;;;;31.37;16.40;;;5.20;99.90;;;;;;5030256;28;20452;-69
2021/10/09 05:28:38;;;;;;;31.70;14.50;;;5.30;99.90;;;;;;5030926;28;20045;-69
2021/10/09 05:31:07;;;;;;;30.47;14.17;;;5.30;99.90;;;;;;5036728;28;20460;-70
2021/10/09 05:33:39;;;;;;;29.07;14.47;;;5.20;99.90;;;;;;5035507;28;20144;-71
2021/10/09 05:36:08;;;;;;;32.97;14.63;;;5.20;99.90;;;;;;5033925;28;20045;-68
2021/10/09 05:38:35;;;;;;;36.10;14.63;;;5.20;99.90;;;;;;5030620;28;20106;-69
2021/10/09 05:41:02;;;;;;;32.93;16.10;;;5.10;99.90;;;;;;5031512;28;20053;-70
2021/10/09 05:43:30;;;;;;;34.87;15.87;;;5.00;99.90;;;;;;5034214;28;20107;-70
2021/10/09 05:45:58;;;;;;;34.67;16.77;;;5.10;99.90;;;;;;5033256;28;20139;-68
2021/10/09 05:48:25;;;;;;;30.97;15.13;;;5.10;99.90;;;;;;5030172;28;20410;-69
2021/10/09 05:50:57;;;;;;;34.33;15.23;;;5.10;99.90;;;;;;5030286;28;20155;-68
2021/10/09 05:53:43;;;;;;;27.97;14.77;;;5.10;99.90;;;;;;5032443;28;20091;-72
2021/10/09 05:56:15;;;;;;;31.65;15.43;;;5.10;99.90;;;;;;5032610;28;20061;-70
2021/10/09 05:58:54;;;;;;;33.57;16.27;;;5.20;99.90;;;;;;5034620;28;20045;-73
2021/10/09 06:31:01;;;;;;;35.45;15.75;;;5.60;99.90;;;;;;5036653;28;20047;-69
2021/10/09 06:59:49;;;;;;;39.17;17.60;;;6.50;99.90;;;;;;4981254;28;20042;-68
2021/10/09 07:02:16;;;;;;;37.03;16.90;;;6.60;99.90;;;;;;5037073;28;20041;-69
2021/10/09 07:04:43;;;;;;;34.80;17.05;;;6.60;99.90;;;;;;5037106;28;20068;-69
2021/10/09 07:07:16;;;;;;;38.20;17.80;;;6.70;99.90;;;;;;5036244;28;20509;-69
2021/10/09 07:09:43;;;;;;;35.30;16.52;;;6.80;99.90;;;;;;5036001;28;20497;-68
2021/10/09 07:12:10;;;;;;;32.60;17.63;;;7.00;99.90;;;;;;5037172;28;20115;-68
2021/10/09 07:14:37;;;;;;;44.80;18.42;;;7.00;99.90;;;;;;5037052;28;20053;-68
2021/10/09 07:17:06;;;;;;;35.47;18.75;;;7.10;99.90;;;;;;5037184;28;20056;-69
2021/10/09 07:19:33;;;;;;;32.40;17.52;;;7.30;99.90;;;;;;5036568;28;20055;-69
2021/10/09 07:22:00;;;;;;;37.75;18.60;;;7.30;99.90;;;;;;5036199;28;20045;-69
2021/10/09 07:24:27;;;;;;;36.17;17.13;;;7.40;99.90;;;;;;5035926;28;20134;-69
2021/10/09 07:26:54;;;;;;;32.28;17.65;;;7.50;99.90;;;;;;5035983;28;20068;-69
2021/10/09 07:29:21;;;;;;;36.85;18.17;;;7.60;99.90;;;;;;5036461;28;20095;-69
2021/10/09 07:31:48;;;;;;;36.03;17.58;;;7.60;99.90;;;;;;5037077;28;20045;-69
2021/10/09 07:34:16;;;;;;;36.78;17.88;;;7.80;99.90;;;;;;5035757;28;20499;-69
2021/10/09 07:36:43;;;;;;;38.22;17.63;;;7.90;99.90;;;;;;5035491;28;20061;-68
2021/10/09 07:39:10;;;;;;;36.38;17.38;;;8.00;99.90;;;;;;5035487;28;20467;-69
2021/10/09 07:41:37;;;;;;;34.70;17.35;;;8.10;99.90;;;;;;5035284;28;20459;-69
2021/10/09 07:44:04;;;;;;;40.40;19.38;;;8.20;99.90;;;;;;5035091;28;20935;-70
2021/10/09 07:46:31;;;;;;;40.75;19.88;;;8.30;99.90;;;;;;5034975;28;20049;-69
2021/10/09 07:48:59;;;;;;;38.42;18.85;;;8.40;99.90;;;;;;5034902;28;20072;-70
2021/10/09 07:51:27;;;;;;;38.47;17.58;;;8.60;99.90;;;;;;5032700;28;20396;-69
2021/10/09 07:53:54;;;;;;;32.17;18.20;;;8.90;99.90;;;;;;5032627;28;21151;-69
2021/10/09 07:56:21;;;;;;;38.38;17.63;;;9.20;99.90;;;;;;5033445;28;20559;-67
2021/10/09 07:58:48;;;;;;;33.58;15.65;;;10.60;99.90;;;;;;5033743;28;21330;-69
2021/10/09 08:01:15;;;;;;;33.10;15.95;;;15.60;99.90;;;;;;5033249;28;20076;-68
2021/10/09 08:03:42;;;;;;;32.35;16.00;;;17.90;99.90;;;;;;5034100;28;20436;-68
2021/10/09 08:06:09;;;;;;;28.70;16.02;;;16.30;99.90;;;;;;5033993;28;20099;-68
2021/10/09 08:08:37;;;;;;;28.60;15.57;;;13.80;99.90;;;;;;5034549;28;20146;-68
2021/10/09 08:11:04;;;;;;;30.77;16.58;;;12.80;99.90;;;;;;5035138;28;20045;-68
2021/10/09 08:13:32;;;;;;;29.25;16.58;;;12.50;99.90;;;;;;5035098;28;20049;-68
2021/10/09 08:15:59;;;;;;;32.70;17.63;;;12.50;99.90;;;;;;5034543;28;20468;-68
2021/10/09 08:18:26;;;;;;;33.65;17.38;;;12.60;99.90;;;;;;5033816;28;21074;-68
2021/10/09 08:20:59;;;;;;;28.48;16.17;;;12.70;99.90;;;;;;5034798;28;20060;-68
2021/10/09 08:23:29;;;;;;;29.88;16.98;;;13.50;99.90;;;;;;5033120;28;20453;-68
2021/10/09 08:37:19;;;;;;;25.38;14.57;;;22.60;95.10;;;;;;5035084;28;20131;-68
2021/10/09 08:39:47;;;;;;;21.67;14.10;;;22.80;94.00;;;;;;5035229;28;20106;-69
2021/10/09 08:42:16;;;;;;;21.77;13.93;;;22.40;92.90;;;;;;5034154;28;20049;-68
2021/10/09 08:44:43;;;;;;;22.63;13.13;;;22.70;91.60;;;;;;5035506;28;20100;-68
2021/10/09 08:47:11;;;;;;;22.88;14.52;;;22.30;92.00;;;;;;5034858;28;20087;-73
2021/10/09 08:49:39;;;;;;;23.58;13.48;;;23.60;91.50;;;;;;5036338;28;20045;-70
2021/10/09 08:52:07;;;;;;;23.95;14.82;;;23.70;90.90;;;;;;5034424;28;20485;-69
2021/10/09 08:54:40;;;;;;;26.17;14.45;;;23.60;90.30;;;;;;5034623;28;20041;-69
2021/10/09 08:57:11;;;;;;;24.13;13.90;;;23.20;90.00;;;;;;5032192;28;20048;-69
2021/10/09 08:59:49;;;;;;;24.83;14.32;;;23.40;90.60;;;;;;5032131;28;20060;-69
2021/10/09 09:02:20;;;;;;;20.50;13.55;;;23.30;89.80;;;;;;5031398;28;20053;-68
2021/10/09 09:05:02;;;;;;;22.33;14.23;;;23.90;90.20;;;;;;5032524;28;20716;-67
2021/10/09 09:07:49;;;;;;;20.55;14.15;;;24.50;88.90;;;;;;5031658;28;20088;-68
2021/10/09 09:33:17;;;;;;;16.67;11.15;;;24.10;78.70;;;;;;5032696;28;20079;-68
2021/10/09 09:35:51;;;;;;;21.77;11.18;;;24.60;80.90;;;;;;5030355;28;20056;-68
2021/10/09 09:41:11;;;;;;;17.23;10.00;;;25.40;79.00;;;;;;5031946;28;20052;-69
2021/10/09 09:43:40;;;;;;;14.90;9.50;;;24.80;76.70;;;;;;5032510;28;20494;-68
2021/10/09 09:46:12;;;;;;;17.98;9.85;;;24.80;77.10;;;;;;5032681;28;20125;-68
2021/10/09 09:48:42;;;;;;;16.92;9.07;;;24.50;76.60;;;;;;5035690;28;20049;-68
2021/10/09 09:51:11;;;;;;;16.23;9.25;;;25.40;75.20;;;;;;5035788;28;20099;-68
2021/10/09 09:53:39;;;;;;;14.60;9.38;;;24.30;77.60;;;;;;5035139;28;20041;-68
2021/10/09 09:56:08;;;;;;;15.43;8.85;;;25.60;77.20;;;;;;5034820;28;20045;-68
2021/10/09 09:58:38;;;;;;;13.68;8.18;;;25.80;75.10;;;;;;5035603;28;20061;-67
2021/10/09 10:01:08;;;;;;;20.33;8.00;;;24.10;74.20;;;;;;5035982;28;20049;-68
2021/10/09 10:03:36;;;;;;;15.45;7.72;;;24.40;74.70;;;;;;5036640;28;20106;-67
2021/10/09 10:06:06;;;;;;;16.50;8.85;;;25.10;76.10;;;;;;5033766;28;20110;-67
2021/10/09 10:08:33;;;;;;;17.65;8.23;;;26.20;73.20;;;;;;5034102;28;20122;-68
2021/10/09 10:11:03;;;;;;;17.05;8.90;;;26.70;71.90;;;;;;5034976;28;20132;-68
2021/10/09 10:13:32;;;;;;;14.35;8.68;;;26.00;73.30;;;;;;5035406;28;20060;-68
2021/10/09 10:16:04;;;;;;;13.38;7.70;;;25.60;71.70;;;;;;5035151;28;20053;-67
2021/10/09 10:18:53;;;;;;;13.98;7.85;;;25.90;70.30;;;;;;5034647;28;20103;-68
2021/10/09 10:21:46;;;;;;;15.02;8.10;;;25.80;72.20;;;;;;5035418;28;20052;-68
2021/10/09 10:24:44;;;;;;;13.57;7.93;;;26.30;70.60;;;;;;5035320;28;20045;-69
2021/10/09 10:27:31;;;;;;;13.98;7.78;;;28.10;71.90;;;;;;5026891;28;20053;-68
2021/10/09 10:30:24;;;;;;;13.93;7.90;;;28.40;69.60;;;;;;5034815;28;20391;-68
2021/10/09 10:33:48;;;;;;;13.95;8.23;;;28.60;68.50;;;;;;5029409;28;20128;-68
2021/10/09 10:36:38;;;;;;;12.20;8.07;;;28.80;68.80;;;;;;5033391;28;20452;-68
2021/10/09 10:39:06;;;;;;;13.32;7.72;;;27.00;70.20;;;;;;5035335;28;20060;-68
2021/10/09 10:41:45;;;;;;;10.85;6.93;;;29.70;70.80;;;;;;5035013;28;20048;-68
2021/10/09 10:44:50;;;;;;;16.15;7.95;;;30.20;67.10;;;;;;5035713;28;20045;-68
2021/10/09 10:47:46;;;;;;;14.55;7.22;;;27.60;68.80;;;;;;5034439;28;20061;-68
2021/10/09 10:54:29;;;;;;;17.50;8.68;;;30.20;66.10;;;;;;5034788;28;20460;-68
2021/10/09 10:57:22;;;;;;;14.38;7.53;;;30.00;64.40;;;;;;4971763;28;20323;-69
2021/10/09 10:59:55;;;;;;;12.75;7.47;;;30.30;67.70;;;;;;4972682;28;21072;-68
2021/10/09 11:02:23;;;;;;;15.05;7.00;;;30.40;63.20;;;;;;5021922;28;20045;-67
2021/10/09 11:04:52;;;;;;;15.73;6.75;;;30.40;64.10;;;;;;5035041;28;20049;-67
2021/10/09 11:07:20;;;;;;;12.52;6.50;;;30.30;62.30;;;;;;5034063;28;20080;-67
2021/10/09 11:09:51;;;;;;;14.68;6.45;;;32.10;62.70;;;;;;5034645;28;20402;-68
2021/10/09 11:12:26;;;;;;;16.58;7.18;;;30.90;62.30;;;;;;5033369;28;20502;-68
2021/10/09 11:15:02;;;;;;;16.23;6.85;;;30.90;62.30;;;;;;5034055;28;20103;-68
2021/10/09 11:17:34;;;;;;;17.05;7.47;;;32.40;62.70;;;;;;5033780;28;20049;-68
2021/10/09 11:20:01;;;;;;;14.18;7.55;;;30.10;63.20;;;;;;5033434;28;20065;-69
2021/10/09 11:22:43;;;;;;;12.52;7.22;;;30.80;64.80;;;;;;5033739;28;20049;-68
2021/10/09 11:25:25;;;;;;;14.05;7.45;;;32.20;63.80;;;;;;5034002;28;20053;-68
2021/10/09 11:27:52;;;;;;;15.02;6.93;;;31.30;61.30;;;;;;5033514;28;20129;-68
2021/10/09 11:30:19;;;;;;;13.85;7.15;;;31.70;62.20;;;;;;5033214;28;20134;-68
2021/10/09 11:32:47;;;;;;;12.90;6.82;;;30.60;62.90;;;;;;5033964;28;20048;-69
2021/10/09 11:35:15;;;;;;;14.07;6.45;;;31.50;62.40;;;;;;5033514;28;20106;-68
2021/10/09 11:37:48;;;;;;;15.20;6.55;;;31.30;62.80;;;;;;5033926;28;20527;-68
2021/10/09 11:40:27;;;;;;;10.02;6.05;;;31.30;63.30;;;;;;5033462;28;20163;-68
2021/10/09 11:42:57;;;;;;;15.48;6.50;;;32.60;61.10;;;;;;5032976;28;20128;-68
2021/10/09 11:45:29;;;;;;;12.80;6.20;;;30.30;61.90;;;;;;5033700;28;20585;-68
2021/10/09 11:53:46;;;;;;;12.18;5.85;;;31.80;59.70;;;;;;5033424;28;20048;-68
2021/10/09 11:56:15;;;;;;;12.52;6.03;;;32.30;61.80;;;;;;5033073;28;20508;-68
2021/10/09 11:58:47;;;;;;;10.82;6.00;;;31.90;62.30;;;;;;5033669;28;20041;-68
2021/10/09 12:01:35;;;;;;;13.20;6.10;;;31.30;61.20;;;;;;5033074;28;20508;-68
2021/10/09 12:04:20;;;;;;;12.75;5.97;;;30.00;62.90;;;;;;5032869;28;20052;-68
2021/10/09 12:06:50;;;;;;;17.70;6.38;;;31.80;63.70;;;;;;5032078;28;20044;-68
2021/10/09 12:09:36;;;;;;;18.98;5.70;;;32.20;61.70;;;;;;5032983;28;20052;-68
2021/10/09 12:12:19;;;;;;;11.88;6.20;;;30.00;62.30;;;;;;5032080;28;20055;-68
2021/10/09 12:14:50;;;;;;;10.82;5.32;;;30.90;62.80;;;;;;5032753;28;20144;-69
2021/10/09 12:17:20;;;;;;;10.60;5.32;;;28.60;61.40;;;;;;5032881;28;20045;-68
2021/10/09 12:19:58;;;;;;;10.45;5.75;;;29.30;62.60;;;;;;5033964;28;20079;-68
2021/10/09 12:22:25;;;;;;;12.23;5.60;;;28.80;62.90;;;;;;5031779;28;20955;-68
2021/10/09 12:24:53;;;;;;;9.57;4.95;;;30.00;62.40;;;;;;5032927;28;20506;-68
2021/10/09 12:27:26;;;;;;;10.13;4.05;;;29.30;61.60;;;;;;5031868;28;20571;-68
2021/10/09 12:30:01;;;;;;;11.82;5.50;;;29.40;59.80;;;;;;5033395;28;20418;-68
2021/10/09 12:32:29;;;;;;;11.48;4.90;;;28.10;61.90;;;;;;5032088;28;20057;-68
2021/10/09 12:35:09;;;;;;;13.60;5.45;;;28.90;61.10;;;;;;5032216;28;20076;-68
2021/10/09 12:37:37;;;;;;;11.32;4.50;;;28.00;62.20;;;;;;5030326;28;20497;-69
2021/10/09 12:40:22;;;;;;;10.38;4.85;;;28.10;61.80;;;;;;5033922;28;20049;-69
2021/10/09 12:42:52;;;;;;;10.15;4.78;;;27.00;63.20;;;;;;5033153;28;20522;-68
2021/10/09 12:45:20;;;;;;;10.27;4.18;;;25.80;62.40;;;;;;5031961;28;20045;-68
2021/10/09 12:47:47;;;;;;;11.98;4.45;;;26.50;63.60;;;;;;5032315;28;20045;-68
2021/10/09 12:50:14;;;;;;;11.20;4.20;;;24.40;63.80;;;;;;5032196;28;20048;-68
2021/10/09 12:52:41;;;;;;;11.02;4.63;;;24.80;66.20;;;;;;5032228;28;20044;-68
2021/10/09 12:55:09;;;;;;;11.43;5.05;;;24.10;67.20;;;;;;5031932;28;20114;-68
2021/10/09 12:57:39;;;;;;;9.88;4.38;;;23.90;63.10;;;;;;5031549;28;20044;-69
2021/10/09 13:00:09;;;;;;;11.80;3.97;;;22.90;66.00;;;;;;5032079;28;20053;-69
2021/10/09 13:02:36;;;;;;;7.75;4.25;;;24.20;65.60;;;;;;5032412;28;20045;-69
2021/10/09 13:05:03;;;;;;;9.02;4.20;;;24.20;65.70;;;;;;5031776;28;20205;-69
2021/10/09 13:07:30;;;;;;;10.65;4.22;;;23.90;65.40;;;;;;5031757;28;20052;-67
2021/10/09 13:09:57;;;;;;;8.52;3.88;;;23.10;65.50;;;;;;5032087;28;20941;-68
2021/10/09 13:12:24;;;;;;;11.98;4.53;;;23.10;64.80;;;;;;5031464;28;20076;-69
2021/10/09 13:14:51;;;;;;;7.43;4.25;;;22.90;65.90;;;;;;5032578;28;20083;-68
2021/10/09 13:17:19;;;;;;;10.80;4.32;;;23.20;66.30;;;;;;5031779;28;20056;-69
2021/10/09 13:19:46;;;;;;;10.25;4.35;;;23.80;65.40;;;;;;5032648;28;20053;-69
2021/10/09 13:22:13;;;;;;;9.23;4.28;;;23.10;65.70;;;;;;5033045;28;20052;-69
2021/10/09 13:24:41;;;;;;;11.70;4.38;;;23.30;65.20;;;;;;5031389;28;20501;-68
2021/10/09 13:27:08;;;;;;;10.32;4.78;;;22.90;65.50;;;;;;5031546;28;20307;-68
2021/10/09 13:29:35;;;;;;;11.13;4.65;;;22.70;67.00;;;;;;5031690;28;20053;-69
2021/10/09 13:32:02;;;;;;;12.88;4.55;;;23.20;66.90;;;;;;5031282;28;20053;-70
2021/10/09 13:34:30;;;;;;;7.72;4.00;;;23.10;66.00;;;;;;5032602;28;20049;-68
2021/10/09 13:36:57;;;;;;;10.07;4.47;;;22.60;67.70;;;;;;5032395;28;20045;-68
2021/10/09 13:39:25;;;;;;;10.15;4.50;;;23.80;66.80;;;;;;5030519;28;20518;-68
2021/10/09 13:41:51;;;;;;;10.88;4.43;;;24.10;65.30;;;;;;5031475;28;20076;-68
2021/10/09 13:44:19;;;;;;;13.40;4.00;;;24.80;67.10;;;;;;5031546;28;20049;-69
2021/10/09 13:46:46;;;;;;;9.50;4.05;;;23.50;65.50;;;;;;5031691;28;20045;-68
2021/10/09 13:49:13;;;;;;;9.93;4.15;;;22.30;66.50;;;;;;5032042;28;20045;-68
2021/10/09 13:51:41;;;;;;;10.32;3.97;;;22.90;67.20;;;;;;5033469;28;20497;-69
2021/10/09 13:54:08;;;;;;;9.73;4.18;;;22.30;67.00;;;;;;5032067;28;20135;-68
2021/10/09 13:56:35;;;;;;;8.75;4.30;;;22.40;67.00;;;;;;5030522;28;20045;-67
2021/10/09 13:59:02;;;;;;;7.53;4.15;;;21.70;68.20;;;;;;5032066;28;20098;-69
2021/10/09 14:01:29;;;;;;;11.27;4.30;;;21.60;68.50;;;;;;5030974;28;20505;-68
2021/10/09 14:03:56;;;;;;;11.38;4.80;;;21.20;68.50;;;;;;5031712;28;20102;-68
2021/10/09 14:06:23;;;;;;;12.15;4.53;;;21.60;70.20;;;;;;5030901;28;20049;-68
2021/10/09 14:08:53;;;;;;;10.88;4.47;;;22.00;69.80;;;;;;5031274;28;20045;-68
2021/10/09 14:11:21;;;;;;;11.38;4.72;;;21.00;67.20;;;;;;5031025;28;20056;-68
2021/10/09 14:13:49;;;;;;;8.32;3.72;;;20.70;70.00;;;;;;5031661;28;20049;-70
2021/10/09 14:16:16;;;;;;;10.93;4.47;;;21.40;70.90;;;;;;5030706;28;20049;-68
2021/10/09 14:18:43;;;;;;;12.05;5.05;;;20.70;71.00;;;;;;5031277;28;20080;-68
2021/10/09 14:21:10;;;;;;;12.40;5.05;;;21.20;73.50;;;;;;5031605;28;20048;-68
2021/10/09 14:23:38;;;;;;;11.63;4.88;;;20.30;72.40;;;;;;5030501;28;20346;-68
2021/10/09 14:26:07;;;;;;;13.55;4.63;;;20.90;72.70;;;;;;5030644;28;20409;-68
2021/10/09 14:28:34;;;;;;;10.48;4.93;;;20.50;73.50;;;;;;5031369;28;20131;-68
2021/10/09 14:31:01;;;;;;;11.02;4.85;;;20.60;73.10;;;;;;5031745;28;20048;-68
2021/10/09 14:33:28;;;;;;;12.93;5.20;;;21.20;73.50;;;;;;5034765;28;20092;-70
2021/10/09 14:35:55;;;;;;;10.07;4.57;;;21.40;73.20;;;;;;5035377;28;20464;-69
2021/10/09 14:38:23;;;;;;;10.55;5.05;;;21.10;72.60;;;;;;5035218;28;20076;-69
2021/10/09 14:40:50;;;;;;;12.38;4.78;;;20.30;73.00;;;;;;5035347;28;20508;-69